Bennington, Vermont
Current Conditions -  °F | °C
As of 2:25 PM on Friday 24 Oct 2014 (Local Time) from KDDH Reporting Station
Haze Haze  
Wind Chill:   Ceiling: 1600
Heat Index:   Visibility: 5mi
Dew Point:   Wind: 7mph
Humidity: 86%   Direction: 340°NNW
Pressure: 29.79"   Gusts: NA
Location:  42.88°N, 73.2°W
Report Text: KDDH 241825Z AUTO 34006KT 5SM BR FEW010 BKN016 OVC028 08/06 A2979 RMK AO2 T00780056
Loading
Personal Weather Stations






























Interactive Weather Map
Tropical Storm Tracking
New forecast layout! Learn more

10-Day Weather Forecast

Advertisements
Track Severe Weather on mobile